sensor_id;sensor_type;location;lat;lon;timestamp;temperature;humidity
29577;DHT22;16509;53.862;10.672;2023-06-26T00:00:13;20.40;99.90
29577;DHT22;16509;53.862;10.672;2023-06-26T00:02:39;20.20;99.90
29577;DHT22;16509;53.862;10.672;2023-06-26T00:05:05;20.40;99.90
29577;DHT22;16509;53.862;10.672;2023-06-26T00:09:59;20.30;99.90
29577;DHT22;16509;53.862;10.672;2023-06-26T00:12:25;20.40;99.90
29577;DHT22;16509;53.862;10.672;2023-06-26T00:14:51;20.40;99.90
29577;DHT22;16509;53.862;10.672;2023-06-26T00:17:16;20.30;99.90
29577;DHT22;16509;53.862;10.672;2023-06-26T00:19:42;20.40;99.90
29577;DHT22;16509;53.862;10.672;2023-06-26T00:22:07;20.10;99.90
29577;DHT22;16509;53.862;10.672;2023-06-26T00:24:33;20.10;99.90
29577;DHT22;16509;53.862;10.672;2023-06-26T00:26:58;20.50;99.90
29577;DHT22;16509;53.862;10.672;2023-06-26T00:29:24;20.10;99.90
29577;DHT22;16509;53.862;10.672;2023-06-26T00:34:15;20.00;99.90
29577;DHT22;16509;53.862;10.672;2023-06-26T00:36:41;20.10;99.90
29577;DHT22;16509;53.862;10.672;2023-06-26T00:39:10;20.10;99.90
29577;DHT22;16509;53.862;10.672;2023-06-26T00:41:37;20.10;99.90
29577;DHT22;16509;53.862;10.672;2023-06-26T00:44:04;19.90;99.90
29577;DHT22;16509;53.862;10.672;2023-06-26T00:46:29;20.20;99.90
29577;DHT22;16509;53.862;10.672;2023-06-26T00:48:58;20.30;99.90
29577;DHT22;16509;53.862;10.672;2023-06-26T00:51:24;20.10;99.90
29577;DHT22;16509;53.862;10.672;2023-06-26T00:56:17;19.90;99.90
29577;DHT22;16509;53.862;10.672;2023-06-26T00:58:44;20.20;99.90
29577;DHT22;16509;53.862;10.672;2023-06-26T01:01:11;20.10;99.90
29577;DHT22;16509;53.862;10.672;2023-06-26T01:03:41;19.70;99.90
29577;DHT22;16509;53.862;10.672;2023-06-26T01:06:07;21.10;99.90
29577;DHT22;16509;53.862;10.672;2023-06-26T01:11:03;20.20;99.90
29577;DHT22;16509;53.862;10.672;2023-06-26T01:13:29;20.30;99.90
29577;DHT22;16509;53.862;10.672;2023-06-26T01:23:30;20.30;99.90
29577;DHT22;16509;53.862;10.672;2023-06-26T01:28:42;20.20;99.90
29577;DHT22;16509;53.862;10.672;2023-06-26T01:31:08;19.90;99.90
29577;DHT22;16509;53.862;10.672;2023-06-26T01:33:35;20.20;99.90
29577;DHT22;16509;53.862;10.672;2023-06-26T01:36:01;20.30;99.90
29577;DHT22;16509;53.862;10.672;2023-06-26T01:38:27;20.20;99.90
29577;DHT22;16509;53.862;10.672;2023-06-26T01:40:53;20.20;99.90
29577;DHT22;16509;53.862;10.672;2023-06-26T01:43:27;20.10;99.90
29577;DHT22;16509;53.862;10.672;2023-06-26T01:45:58;20.00;99.90
29577;DHT22;16509;53.862;10.672;2023-06-26T01:48:29;18.40;99.90
29577;DHT22;16509;53.862;10.672;2023-06-26T01:50:58;20.00;99.90
29577;DHT22;16509;53.862;10.672;2023-06-26T01:53:25;20.10;99.90
29577;DHT22;16509;53.862;10.672;2023-06-26T01:56:12;20.20;99.90
29577;DHT22;16509;53.862;10.672;2023-06-26T01:58:41;19.80;99.90
29577;DHT22;16509;53.862;10.672;2023-06-26T02:01:08;19.90;99.90
29577;DHT22;16509;53.862;10.672;2023-06-26T02:03:34;20.10;99.90
29577;DHT22;16509;53.862;10.672;2023-06-26T02:05:59;19.90;99.90
29577;DHT22;16509;53.862;10.672;2023-06-26T02:08:25;19.80;99.90
29577;DHT22;16509;53.862;10.672;2023-06-26T02:10:51;20.10;99.90
29577;DHT22;16509;53.862;10.672;2023-06-26T02:13:16;20.10;99.90
29577;DHT22;16509;53.862;10.672;2023-06-26T02:15:42;20.00;99.90
29577;DHT22;16509;53.862;10.672;2023-06-26T02:18:07;19.90;99.90
29577;DHT22;16509;53.862;10.672;2023-06-26T02:22:59;20.00;99.90
29577;DHT22;16509;53.862;10.672;2023-06-26T02:27:51;19.80;99.90
29577;DHT22;16509;53.862;10.672;2023-06-26T02:30:16;20.10;99.90
29577;DHT22;16509;53.862;10.672;2023-06-26T02:35:08;20.20;99.90
29577;DHT22;16509;53.862;10.672;2023-06-26T02:37:34;20.10;99.90
29577;DHT22;16509;53.862;10.672;2023-06-26T02:39:59;20.10;99.90
29577;DHT22;16509;53.862;10.672;2023-06-26T02:42:25;20.10;99.90
29577;DHT22;16509;53.862;10.672;2023-06-26T02:44:50;20.10;99.90
29577;DHT22;16509;53.862;10.672;2023-06-26T02:47:17;20.10;99.90
29577;DHT22;16509;53.862;10.672;2023-06-26T02:49:42;19.90;99.90
29577;DHT22;16509;53.862;10.672;2023-06-26T02:52:08;20.00;99.90
29577;DHT22;16509;53.862;10.672;2023-06-26T02:56:59;19.90;99.90
29577;DHT22;16509;53.862;10.672;2023-06-26T02:59:25;19.90;99.90
29577;DHT22;16509;53.862;10.672;2023-06-26T03:04:17;19.90;99.90
29577;DHT22;16509;53.862;10.672;2023-06-26T03:09:09;20.10;99.90
29577;DHT22;16509;53.862;10.672;2023-06-26T03:11:35;19.80;99.90
29577;DHT22;16509;53.862;10.672;2023-06-26T03:21:18;19.60;99.90
29577;DHT22;16509;53.862;10.672;2023-06-26T03:23:44;19.80;99.90
29577;DHT22;16509;53.862;10.672;2023-06-26T03:26:09;19.90;99.90
29577;DHT22;16509;53.862;10.672;2023-06-26T03:31:01;19.70;99.90
29577;DHT22;16509;53.862;10.672;2023-06-26T03:33:27;19.90;99.90
29577;DHT22;16509;53.862;10.672;2023-06-26T03:35:52;20.00;99.90
29577;DHT22;16509;53.862;10.672;2023-06-26T03:40:44;19.90;99.90
29577;DHT22;16509;53.862;10.672;2023-06-26T03:48:01;19.90;99.90
29577;DHT22;16509;53.862;10.672;2023-06-26T03:50:27;19.90;99.90
29577;DHT22;16509;53.862;10.672;2023-06-26T03:52:52;20.20;99.90
29577;DHT22;16509;53.862;10.672;2023-06-26T03:55:19;19.80;99.90
29577;DHT22;16509;53.862;10.672;2023-06-26T03:57:46;19.90;99.90
29577;DHT22;16509;53.862;10.672;2023-06-26T04:00:12;20.10;99.90
29577;DHT22;16509;53.862;10.672;2023-06-26T04:02:38;20.00;99.90
29577;DHT22;16509;53.862;10.672;2023-06-26T04:05:04;20.20;99.90
29577;DHT22;16509;53.862;10.672;2023-06-26T04:07:30;20.10;99.90
29577;DHT22;16509;53.862;10.672;2023-06-26T04:09:56;20.30;99.90
29577;DHT22;16509;53.862;10.672;2023-06-26T04:12:22;20.30;99.90
29577;DHT22;16509;53.862;10.672;2023-06-26T04:14:48;20.20;99.90
29577;DHT22;16509;53.862;10.672;2023-06-26T04:17:13;20.20;99.90
29577;DHT22;16509;53.862;10.672;2023-06-26T04:19:39;20.30;99.90
29577;DHT22;16509;53.862;10.672;2023-06-26T04:22:04;20.30;99.90
29577;DHT22;16509;53.862;10.672;2023-06-26T04:24:30;20.30;99.90
29577;DHT22;16509;53.862;10.672;2023-06-26T04:26:55;20.50;99.90
29577;DHT22;16509;53.862;10.672;2023-06-26T04:29:25;20.40;99.90
29577;DHT22;16509;53.862;10.672;2023-06-26T04:31:52;20.50;99.90
29577;DHT22;16509;53.862;10.672;2023-06-26T04:34:19;20.80;99.90
29577;DHT22;16509;53.862;10.672;2023-06-26T04:36:44;20.60;99.90
29577;DHT22;16509;53.862;10.672;2023-06-26T04:39:13;20.80;99.90
29577;DHT22;16509;53.862;10.672;2023-06-26T04:41:40;20.80;99.90
29577;DHT22;16509;53.862;10.672;2023-06-26T04:44:05;20.90;99.90
29577;DHT22;16509;53.862;10.672;2023-06-26T04:46:31;20.90;99.90
29577;DHT22;16509;53.862;10.672;2023-06-26T04:48:56;20.80;99.90
29577;DHT22;16509;53.862;10.672;2023-06-26T04:51:24;21.00;99.90
29577;DHT22;16509;53.862;10.672;2023-06-26T04:53:55;20.80;99.90
29577;DHT22;16509;53.862;10.672;2023-06-26T04:56:23;21.10;99.90
29577;DHT22;16509;53.862;10.672;2023-06-26T04:58:49;21.40;99.90
29577;DHT22;16509;53.862;10.672;2023-06-26T05:01:14;21.20;99.90
29577;DHT22;16509;53.862;10.672;2023-06-26T05:03:40;21.50;99.90
29577;DHT22;16509;53.862;10.672;2023-06-26T05:06:06;21.40;99.90
29577;DHT22;16509;53.862;10.672;2023-06-26T05:10:57;21.60;99.90
29577;DHT22;16509;53.862;10.672;2023-06-26T05:13:24;21.70;99.90
29577;DHT22;16509;53.862;10.672;2023-06-26T05:15:51;21.60;99.90
29577;DHT22;16509;53.862;10.672;2023-06-26T05:20:43;21.80;99.90
29577;DHT22;16509;53.862;10.672;2023-06-26T05:23:11;21.90;99.90
29577;DHT22;16509;53.862;10.672;2023-06-26T05:25:37;22.30;99.90
29577;DHT22;16509;53.862;10.672;2023-06-26T05:28:03;22.00;99.90
29577;DHT22;16509;53.862;10.672;2023-06-26T05:30:34;22.20;99.90
29577;DHT22;16509;53.862;10.672;2023-06-26T05:33:03;22.20;99.90
29577;DHT22;16509;53.862;10.672;2023-06-26T05:35:29;22.40;99.90
29577;DHT22;16509;53.862;10.672;2023-06-26T05:37:56;22.60;99.90
29577;DHT22;16509;53.862;10.672;2023-06-26T05:40:25;22.60;99.90
29577;DHT22;16509;53.862;10.672;2023-06-26T05:45:17;22.70;99.90
29577;DHT22;16509;53.862;10.672;2023-06-26T05:47:42;22.90;99.90
29577;DHT22;16509;53.862;10.672;2023-06-26T05:50:09;23.00;99.90
29577;DHT22;16509;53.862;10.672;2023-06-26T05:52:35;23.10;99.90
29577;DHT22;16509;53.862;10.672;2023-06-26T05:55:02;23.20;99.90
29577;DHT22;16509;53.862;10.672;2023-06-26T05:57:30;23.40;99.90
29577;DHT22;16509;53.862;10.672;2023-06-26T05:59:56;23.60;99.90
29577;DHT22;16509;53.862;10.672;2023-06-26T06:02:22;23.80;99.90
29577;DHT22;16509;53.862;10.672;2023-06-26T06:04:48;23.70;99.90
29577;DHT22;16509;53.862;10.672;2023-06-26T06:07:14;24.00;99.90
29577;DHT22;16509;53.862;10.672;2023-06-26T06:09:39;23.90;99.90
29577;DHT22;16509;53.862;10.672;2023-06-26T06:12:06;24.20;99.90
29577;DHT22;16509;53.862;10.672;2023-06-26T06:14:35;24.30;99.90
29577;DHT22;16509;53.862;10.672;2023-06-26T06:17:01;24.40;99.90
29577;DHT22;16509;53.862;10.672;2023-06-26T06:19:26;24.70;99.90
29577;DHT22;16509;53.862;10.672;2023-06-26T06:21:52;24.60;99.90
29577;DHT22;16509;53.862;10.672;2023-06-26T06:24:18;24.80;99.90
29577;DHT22;16509;53.862;10.672;2023-06-26T06:26:46;24.70;99.90
29577;DHT22;16509;53.862;10.672;2023-06-26T06:29:12;25.50;99.90
29577;DHT22;16509;53.862;10.672;2023-06-26T06:31:37;26.80;99.90
29577;DHT22;16509;53.862;10.672;2023-06-26T06:34:03;25.20;99.90
29577;DHT22;16509;53.862;10.672;2023-06-26T06:36:28;25.50;99.90
29577;DHT22;16509;53.862;10.672;2023-06-26T06:38:54;25.40;99.90
29577;DHT22;16509;53.862;10.672;2023-06-26T06:41:20;25.60;99.90
29577;DHT22;16509;53.862;10.672;2023-06-26T06:43:46;25.70;99.90
29577;DHT22;16509;53.862;10.672;2023-06-26T06:46:11;26.00;99.90
29577;DHT22;16509;53.862;10.672;2023-06-26T06:48:37;26.10;99.90
29577;DHT22;16509;53.862;10.672;2023-06-26T06:51:02;26.30;99.90
29577;DHT22;16509;53.862;10.672;2023-06-26T06:53:29;26.40;99.90
29577;DHT22;16509;53.862;10.672;2023-06-26T06:55:54;26.50;99.90
29577;DHT22;16509;53.862;10.672;2023-06-26T06:58:20;26.60;99.90
29577;DHT22;16509;53.862;10.672;2023-06-26T07:00:45;26.70;99.90
29577;DHT22;16509;53.862;10.672;2023-06-26T07:03:11;26.80;99.90
29577;DHT22;16509;53.862;10.672;2023-06-26T07:05:37;26.80;99.90
29577;DHT22;16509;53.862;10.672;2023-06-26T07:08:03;27.00;99.90
29577;DHT22;16509;53.862;10.672;2023-06-26T07:12:57;26.60;99.90
29577;DHT22;16509;53.862;10.672;2023-06-26T07:15:23;27.00;99.90
29577;DHT22;16509;53.862;10.672;2023-06-26T07:17:48;27.00;99.90
29577;DHT22;16509;53.862;10.672;2023-06-26T07:20:14;27.20;99.90
29577;DHT22;16509;53.862;10.672;2023-06-26T07:22:41;27.50;99.90
29577;DHT22;16509;53.862;10.672;2023-06-26T07:25:08;27.20;99.90
29577;DHT22;16509;53.862;10.672;2023-06-26T07:27:37;27.20;99.90
29577;DHT22;16509;53.862;10.672;2023-06-26T07:30:03;27.60;99.90
29577;DHT22;16509;53.862;10.672;2023-06-26T07:32:29;27.40;99.90
29577;DHT22;16509;53.862;10.672;2023-06-26T07:34:55;27.30;99.90
29577;DHT22;16509;53.862;10.672;2023-06-26T07:37:21;27.30;99.90
29577;DHT22;16509;53.862;10.672;2023-06-26T07:39:47;27.20;99.90
29577;DHT22;16509;53.862;10.672;2023-06-26T07:42:13;27.10;99.90
29577;DHT22;16509;53.862;10.672;2023-06-26T07:44:38;27.40;99.90
29577;DHT22;16509;53.862;10.672;2023-06-26T07:47:04;27.50;99.90
29577;DHT22;16509;53.862;10.672;2023-06-26T07:49:29;27.70;99.90
29577;DHT22;16509;53.862;10.672;2023-06-26T07:51:55;27.50;99.90
29577;DHT22;16509;53.862;10.672;2023-06-26T07:54:20;28.10;99.90
29577;DHT22;16509;53.862;10.672;2023-06-26T07:56:54;28.00;99.90
29577;DHT22;16509;53.862;10.672;2023-06-26T07:59:20;27.80;99.90
29577;DHT22;16509;53.862;10.672;2023-06-26T08:01:47;27.80;99.90
29577;DHT22;16509;53.862;10.672;2023-06-26T08:04:13;28.00;99.90
29577;DHT22;16509;53.862;10.672;2023-06-26T08:06:38;28.00;99.90
29577;DHT22;16509;53.862;10.672;2023-06-26T08:09:06;28.00;99.90
29577;DHT22;16509;53.862;10.672;2023-06-26T08:11:33;28.10;99.90
29577;DHT22;16509;53.862;10.672;2023-06-26T08:13:58;28.20;99.90
29577;DHT22;16509;53.862;10.672;2023-06-26T08:16:38;28.10;99.90
29577;DHT22;16509;53.862;10.672;2023-06-26T08:19:03;28.10;99.90
29577;DHT22;16509;53.862;10.672;2023-06-26T08:23:55;28.40;99.90
29577;DHT22;16509;53.862;10.672;2023-06-26T08:26:20;28.50;99.90
29577;DHT22;16509;53.862;10.672;2023-06-26T08:31:12;28.50;99.90
29577;DHT22;16509;53.862;10.672;2023-06-26T08:33:37;28.40;99.90
29577;DHT22;16509;53.862;10.672;2023-06-26T08:36:03;28.40;99.90
29577;DHT22;16509;53.862;10.672;2023-06-26T08:38:29;28.30;99.90
29577;DHT22;16509;53.862;10.672;2023-06-26T08:43:20;28.50;99.90
29577;DHT22;16509;53.862;10.672;2023-06-26T08:45:47;28.70;99.90
29577;DHT22;16509;53.862;10.672;2023-06-26T08:48:17;28.80;99.90
29577;DHT22;16509;53.862;10.672;2023-06-26T08:50:43;28.90;99.90
29577;DHT22;16509;53.862;10.672;2023-06-26T08:56:17;28.90;99.90
29577;DHT22;16509;53.862;10.672;2023-06-26T08:58:44;28.90;99.90
29577;DHT22;16509;53.862;10.672;2023-06-26T09:01:10;29.00;99.90
29577;DHT22;16509;53.862;10.672;2023-06-26T09:03:36;29.00;99.90
29577;DHT22;16509;53.862;10.672;2023-06-26T09:06:02;29.20;99.90
29577;DHT22;16509;53.862;10.672;2023-06-26T09:10:53;29.40;99.90
29577;DHT22;16509;53.862;10.672;2023-06-26T09:13:19;29.70;99.90
29577;DHT22;16509;53.862;10.672;2023-06-26T09:15:46;30.20;99.90
29577;DHT22;16509;53.862;10.672;2023-06-26T09:18:12;30.00;99.90
29577;DHT22;16509;53.862;10.672;2023-06-26T09:20:38;30.00;99.90
29577;DHT22;16509;53.862;10.672;2023-06-26T09:23:04;29.60;99.90
29577;DHT22;16509;53.862;10.672;2023-06-26T09:25:30;30.20;99.90
29577;DHT22;16509;53.862;10.672;2023-06-26T09:27:56;30.30;99.90
29577;DHT22;16509;53.862;10.672;2023-06-26T09:30:22;30.30;99.90
29577;DHT22;16509;53.862;10.672;2023-06-26T09:32:48;30.10;99.90
29577;DHT22;16509;53.862;10.672;2023-06-26T09:35:16;29.80;99.90
29577;DHT22;16509;53.862;10.672;2023-06-26T09:37:42;29.30;99.90
29577;DHT22;16509;53.862;10.672;2023-06-26T09:40:09;29.80;99.90
29577;DHT22;16509;53.862;10.672;2023-06-26T09:42:35;29.40;99.90
29577;DHT22;16509;53.862;10.672;2023-06-26T09:45:01;29.30;99.90
29577;DHT22;16509;53.862;10.672;2023-06-26T09:47:30;28.90;99.90
29577;DHT22;16509;53.862;10.672;2023-06-26T09:49:57;28.80;99.90
29577;DHT22;16509;53.862;10.672;2023-06-26T09:52:26;28.80;99.90
29577;DHT22;16509;53.862;10.672;2023-06-26T09:55:07;28.70;99.90
29577;DHT22;16509;53.862;10.672;2023-06-26T09:57:34;28.70;99.90
29577;DHT22;16509;53.862;10.672;2023-06-26T10:00:02;28.90;99.90
29577;DHT22;16509;53.862;10.672;2023-06-26T10:09:48;29.50;99.90
29577;DHT22;16509;53.862;10.672;2023-06-26T10:12:19;29.10;99.90
29577;DHT22;16509;53.862;10.672;2023-06-26T10:14:48;28.80;99.90
29577;DHT22;16509;53.862;10.672;2023-06-26T10:17:19;28.80;99.90
29577;DHT22;16509;53.862;10.672;2023-06-26T10:19:48;28.70;99.90
29577;DHT22;16509;53.862;10.672;2023-06-26T10:22:18;28.50;99.90
29577;DHT22;16509;53.862;10.672;2023-06-26T10:24:45;28.20;99.90
29577;DHT22;16509;53.862;10.672;2023-06-26T10:27:18;27.90;99.90
29577;DHT22;16509;53.862;10.672;2023-06-26T10:29:56;27.60;99.90
29577;DHT22;16509;53.862;10.672;2023-06-26T10:32:24;27.50;99.90
29577;DHT22;16509;53.862;10.672;2023-06-26T10:34:51;27.20;99.90
29577;DHT22;16509;53.862;10.672;2023-06-26T10:37:17;27.00;99.90
29577;DHT22;16509;53.862;10.672;2023-06-26T10:39:49;26.70;99.90
29577;DHT22;16509;53.862;10.672;2023-06-26T10:42:16;28.00;99.90
29577;DHT22;16509;53.862;10.672;2023-06-26T10:44:43;26.60;99.90
29577;DHT22;16509;53.862;10.672;2023-06-26T10:47:09;26.70;99.90
29577;DHT22;16509;53.862;10.672;2023-06-26T10:49:36;26.50;99.90
29577;DHT22;16509;53.862;10.672;2023-06-26T10:54:29;26.20;99.90
29577;DHT22;16509;53.862;10.672;2023-06-26T10:59:24;25.30;99.90
29577;DHT22;16509;53.862;10.672;2023-06-26T11:02:00;25.20;99.90
29577;DHT22;16509;53.862;10.672;2023-06-26T11:10:08;24.50;99.90
29577;DHT22;16509;53.862;10.672;2023-06-26T11:12:42;24.10;99.90
29577;DHT22;16509;53.862;10.672;2023-06-26T11:15:15;24.00;99.90
29577;DHT22;16509;53.862;10.672;2023-06-26T11:17:42;24.00;99.90
29577;DHT22;16509;53.862;10.672;2023-06-26T11:20:09;23.50;99.90
29577;DHT22;16509;53.862;10.672;2023-06-26T11:22:56;23.30;99.90
29577;DHT22;16509;53.862;10.672;2023-06-26T11:25:54;23.10;99.90
29577;DHT22;16509;53.862;10.672;2023-06-26T11:28:21;22.70;99.90
29577;DHT22;16509;53.862;10.672;2023-06-26T11:30:46;22.40;99.90
29577;DHT22;16509;53.862;10.672;2023-06-26T11:38:04;21.40;99.90
29577;DHT22;16509;53.862;10.672;2023-06-26T11:40:32;21.30;99.90
29577;DHT22;16509;53.862;10.672;2023-06-26T11:42:59;20.90;99.90
29577;DHT22;16509;53.862;10.672;2023-06-26T11:45:28;21.10;99.90
29577;DHT22;16509;53.862;10.672;2023-06-26T11:47:58;20.70;99.90
29577;DHT22;16509;53.862;10.672;2023-06-26T11:52:57;20.80;99.90
29577;DHT22;16509;53.862;10.672;2023-06-26T11:55:24;20.80;99.90
29577;DHT22;16509;53.862;10.672;2023-06-26T11:57:54;20.90;99.90
29577;DHT22;16509;53.862;10.672;2023-06-26T12:00:19;20.90;99.90
29577;DHT22;16509;53.862;10.672;2023-06-26T12:02:46;20.80;99.90
29577;DHT22;16509;53.862;10.672;2023-06-26T12:05:16;20.80;99.90
29577;DHT22;16509;53.862;10.672;2023-06-26T12:07:43;20.80;99.90
29577;DHT22;16509;53.862;10.672;2023-06-26T12:10:10;20.90;99.90
29577;DHT22;16509;53.862;10.672;2023-06-26T12:12:37;20.80;99.90
29577;DHT22;16509;53.862;10.672;2023-06-26T12:15:03;20.80;99.90
29577;DHT22;16509;53.862;10.672;2023-06-26T12:17:30;21.20;99.90
29577;DHT22;16509;53.862;10.672;2023-06-26T12:22:22;22.30;99.90
29577;DHT22;16509;53.862;10.672;2023-06-26T12:24:48;22.60;99.90
29577;DHT22;16509;53.862;10.672;2023-06-26T12:27:17;22.90;99.90
29577;DHT22;16509;53.862;10.672;2023-06-26T12:30:03;23.20;99.90
29577;DHT22;16509;53.862;10.672;2023-06-26T12:34:57;23.40;99.90
29577;DHT22;16509;53.862;10.672;2023-06-26T12:37:22;23.30;99.90
29577;DHT22;16509;53.862;10.672;2023-06-26T12:39:58;23.50;99.90
29577;DHT22;16509;53.862;10.672;2023-06-26T12:42:25;23.60;99.90
29577;DHT22;16509;53.862;10.672;2023-06-26T12:44:52;23.60;99.90
29577;DHT22;16509;53.862;10.672;2023-06-26T12:47:24;23.70;99.90
29577;DHT22;16509;53.862;10.672;2023-06-26T12:49:50;24.40;99.90
29577;DHT22;16509;53.862;10.672;2023-06-26T12:52:17;23.80;99.90
29577;DHT22;16509;53.862;10.672;2023-06-26T12:54:46;23.70;99.90
29577;DHT22;16509;53.862;10.672;2023-06-26T12:57:12;23.90;99.90
29577;DHT22;16509;53.862;10.672;2023-06-26T12:59:39;23.90;99.90
29577;DHT22;16509;53.862;10.672;2023-06-26T13:02:05;24.30;99.90
29577;DHT22;16509;53.862;10.672;2023-06-26T13:06:57;24.50;99.90
29577;DHT22;16509;53.862;10.672;2023-06-26T13:09:24;24.20;99.90
29577;DHT22;16509;53.862;10.672;2023-06-26T13:11:53;24.60;99.90
29577;DHT22;16509;53.862;10.672;2023-06-26T13:16:46;24.70;99.90
29577;DHT22;16509;53.862;10.672;2023-06-26T13:19:11;24.40;99.90
29577;DHT22;16509;53.862;10.672;2023-06-26T13:21:37;24.80;99.90
29577;DHT22;16509;53.862;10.672;2023-06-26T13:24:03;24.90;99.90
29577;DHT22;16509;53.862;10.672;2023-06-26T13:26:29;25.10;99.90
29577;DHT22;16509;53.862;10.672;2023-06-26T13:28:55;25.10;99.90
29577;DHT22;16509;53.862;10.672;2023-06-26T13:31:21;25.20;99.90
29577;DHT22;16509;53.862;10.672;2023-06-26T13:33:47;25.00;99.90
29577;DHT22;16509;53.862;10.672;2023-06-26T13:36:18;24.90;99.90
29577;DHT22;16509;53.862;10.672;2023-06-26T13:38:44;25.10;99.90
29577;DHT22;16509;53.862;10.672;2023-06-26T13:41:09;24.80;99.90
29577;DHT22;16509;53.862;10.672;2023-06-26T13:43:35;24.60;99.90
29577;DHT22;16509;53.862;10.672;2023-06-26T13:48:28;24.20;99.90
29577;DHT22;16509;53.862;10.672;2023-06-26T13:50:54;24.40;99.90
29577;DHT22;16509;53.862;10.672;2023-06-26T13:53:22;24.40;99.90
29577;DHT22;16509;53.862;10.672;2023-06-26T13:55:48;24.40;99.90
29577;DHT22;16509;53.862;10.672;2023-06-26T13:58:16;24.30;99.90
29577;DHT22;16509;53.862;10.672;2023-06-26T14:00:42;24.30;99.90
29577;DHT22;16509;53.862;10.672;2023-06-26T14:03:09;24.40;99.90
29577;DHT22;16509;53.862;10.672;2023-06-26T14:05:36;24.40;99.90
29577;DHT22;16509;53.862;10.672;2023-06-26T14:08:07;24.40;99.90
29577;DHT22;16509;53.862;10.672;2023-06-26T14:10:32;24.40;99.90
29577;DHT22;16509;53.862;10.672;2023-06-26T14:12:59;23.90;99.90
29577;DHT22;16509;53.862;10.672;2023-06-26T14:15:25;24.10;99.90
29577;DHT22;16509;53.862;10.672;2023-06-26T14:17:50;24.00;99.90
29577;DHT22;16509;53.862;10.672;2023-06-26T14:20:17;23.90;99.90
29577;DHT22;16509;53.862;10.672;2023-06-26T14:22:43;24.10;99.90
29577;DHT22;16509;53.862;10.672;2023-06-26T14:25:10;24.10;99.90
29577;DHT22;16509;53.862;10.672;2023-06-26T14:27:36;24.00;99.90
29577;DHT22;16509;53.862;10.672;2023-06-26T14:30:03;24.20;99.90
29577;DHT22;16509;53.862;10.672;2023-06-26T14:32:29;23.70;99.90
29577;DHT22;16509;53.862;10.672;2023-06-26T14:34:55;23.70;99.90
29577;DHT22;16509;53.862;10.672;2023-06-26T14:37:21;23.70;99.90
29577;DHT22;16509;53.862;10.672;2023-06-26T14:39:46;23.80;99.90
29577;DHT22;16509;53.862;10.672;2023-06-26T14:44:38;24.00;99.90
29577;DHT22;16509;53.862;10.672;2023-06-26T14:47:04;23.80;99.90
29577;DHT22;16509;53.862;10.672;2023-06-26T14:49:30;23.90;99.90
29577;DHT22;16509;53.862;10.672;2023-06-26T14:51:56;23.80;99.90
29577;DHT22;16509;53.862;10.672;2023-06-26T14:54:21;23.60;99.90
29577;DHT22;16509;53.862;10.672;2023-06-26T14:59:13;23.40;99.90
29577;DHT22;16509;53.862;10.672;2023-06-26T15:04:05;23.50;99.90
29577;DHT22;16509;53.862;10.672;2023-06-26T15:06:31;23.50;99.90
29577;DHT22;16509;53.862;10.672;2023-06-26T15:13:49;23.70;99.90
29577;DHT22;16509;53.862;10.672;2023-06-26T15:16:15;23.40;99.90
29577;DHT22;16509;53.862;10.672;2023-06-26T15:18:41;23.10;99.90
29577;DHT22;16509;53.862;10.672;2023-06-26T15:21:07;23.60;99.90
29577;DHT22;16509;53.862;10.672;2023-06-26T15:23:33;25.80;99.90
29577;DHT22;16509;53.862;10.672;2023-06-26T15:25:59;23.60;99.90
29577;DHT22;16509;53.862;10.672;2023-06-26T15:28:25;23.40;99.90
29577;DHT22;16509;53.862;10.672;2023-06-26T15:30:50;23.50;99.90
29577;DHT22;16509;53.862;10.672;2023-06-26T15:33:16;23.00;99.90
29577;DHT22;16509;53.862;10.672;2023-06-26T15:35:41;23.20;99.90
29577;DHT22;16509;53.862;10.672;2023-06-26T15:38:07;22.90;99.90
29577;DHT22;16509;53.862;10.672;2023-06-26T15:40:32;22.50;99.90
29577;DHT22;16509;53.862;10.672;2023-06-26T15:45:24;22.90;99.90
29577;DHT22;16509;53.862;10.672;2023-06-26T15:47:51;22.90;99.90
29577;DHT22;16509;53.862;10.672;2023-06-26T15:50:17;23.00;99.90
29577;DHT22;16509;53.862;10.672;2023-06-26T15:52:44;23.10;99.90
29577;DHT22;16509;53.862;10.672;2023-06-26T15:55:10;23.10;99.90
29577;DHT22;16509;53.862;10.672;2023-06-26T15:57:36;23.00;99.90
29577;DHT22;16509;53.862;10.672;2023-06-26T16:00:02;22.80;99.90
29577;DHT22;16509;53.862;10.672;2023-06-26T16:02:29;22.70;99.90
29577;DHT22;16509;53.862;10.672;2023-06-26T16:04:54;22.50;99.90
29577;DHT22;16509;53.862;10.672;2023-06-26T16:07:20;22.40;99.90
29577;DHT22;16509;53.862;10.672;2023-06-26T16:09:45;22.00;99.90
29577;DHT22;16509;53.862;10.672;2023-06-26T16:12:11;22.20;99.90
29577;DHT22;16509;53.862;10.672;2023-06-26T16:14:36;22.30;99.90
29577;DHT22;16509;53.862;10.672;2023-06-26T16:17:02;22.20;99.90
29577;DHT22;16509;53.862;10.672;2023-06-26T16:19:28;22.10;99.90
29577;DHT22;16509;53.862;10.672;2023-06-26T16:21:54;22.10;99.90
29577;DHT22;16509;53.862;10.672;2023-06-26T16:24:19;22.40;99.90
29577;DHT22;16509;53.862;10.672;2023-06-26T16:26:45;22.40;99.90
29577;DHT22;16509;53.862;10.672;2023-06-26T16:29:10;22.30;99.90
29577;DHT22;16509;53.862;10.672;2023-06-26T16:31:36;22.40;99.90
29577;DHT22;16509;53.862;10.672;2023-06-26T16:34:01;22.60;99.90
29577;DHT22;16509;53.862;10.672;2023-06-26T16:36:27;22.50;99.90
29577;DHT22;16509;53.862;10.672;2023-06-26T16:38:53;22.40;99.90
29577;DHT22;16509;53.862;10.672;2023-06-26T16:41:19;22.50;99.90
29577;DHT22;16509;53.862;10.672;2023-06-26T16:43:45;22.10;99.90
29577;DHT22;16509;53.862;10.672;2023-06-26T16:46:10;22.10;99.90
29577;DHT22;16509;53.862;10.672;2023-06-26T16:48:36;22.00;99.90
29577;DHT22;16509;53.862;10.672;2023-06-26T16:51:02;21.90;99.90
29577;DHT22;16509;53.862;10.672;2023-06-26T16:53:27;21.80;99.90
29577;DHT22;16509;53.862;10.672;2023-06-26T16:55:53;21.90;99.90
29577;DHT22;16509;53.862;10.672;2023-06-26T16:58:18;21.60;99.90
29577;DHT22;16509;53.862;10.672;2023-06-26T17:00:44;21.80;99.90
29577;DHT22;16509;53.862;10.672;2023-06-26T17:03:13;21.70;99.90
29577;DHT22;16509;53.862;10.672;2023-06-26T17:05:38;21.60;99.90
29577;DHT22;16509;53.862;10.672;2023-06-26T17:10:32;21.30;99.90
29577;DHT22;16509;53.862;10.672;2023-06-26T17:15:24;21.30;99.90
29577;DHT22;16509;53.862;10.672;2023-06-26T17:17:50;21.30;99.90
29577;DHT22;16509;53.862;10.672;2023-06-26T17:20:16;21.50;99.90
29577;DHT22;16509;53.862;10.672;2023-06-26T17:22:44;21.20;99.90